createdAt,value
2022-08-20T00:01:16.179Z,97160.66
2022-08-20T00:03:44.700Z,97153.97
2022-08-20T00:06:20.257Z,97154.84
2022-08-20T00:08:49.689Z,97147.41
2022-08-20T00:11:20.882Z,97159.56
2022-08-20T00:13:56.156Z,97156.03
2022-08-20T00:16:25.222Z,97154.69
2022-08-20T00:18:54.332Z,97153.59
2022-08-20T00:21:21.785Z,97154.81
2022-08-20T00:23:51.652Z,97155.13
2022-08-20T00:26:21.495Z,97149.63
2022-08-20T00:28:48.874Z,97157.41
2022-08-20T00:31:20.817Z,97155.69
2022-08-20T00:33:50.696Z,97156.91
2022-08-20T00:36:20.867Z,97161.94
2022-08-20T00:38:50.000Z,97151.84
2022-08-20T00:41:23.927Z,97156.88
2022-08-20T00:44:05.784Z,97159.78
2022-08-20T00:46:35.655Z,97163.91
2022-08-20T00:49:08.519Z,97165.09
2022-08-20T00:51:39.245Z,97156.88
2022-08-20T00:54:11.162Z,97166.00
2022-08-20T00:56:39.016Z,97173.03
2022-08-20T00:59:17.706Z,97163.16
2022-08-20T01:01:56.062Z,97172.91
2022-08-20T01:04:28.593Z,97174.63
2022-08-20T01:07:00.097Z,97176.59
2022-08-20T01:09:49.754Z,97174.44
2022-08-20T01:12:16.190Z,97174.59
2022-08-20T01:14:46.719Z,97176.09
2022-08-20T01:17:23.763Z,97175.53
2022-08-20T01:19:58.363Z,97174.03
2022-08-20T01:22:57.589Z,97162.91
2022-08-20T01:25:37.244Z,97178.31
2022-08-20T01:28:09.916Z,97169.31
2022-08-20T01:30:39.447Z,97167.03
2022-08-20T01:33:06.163Z,97182.44
2022-08-20T01:35:38.219Z,97187.75
2022-08-20T01:38:07.411Z,97181.81
2022-08-20T01:40:51.343Z,97188.97
2022-08-20T01:43:20.613Z,97186.84
2022-08-20T01:45:50.908Z,97179.53
2022-08-20T01:48:21.767Z,97176.03
2022-08-20T01:51:19.062Z,97171.00
2022-08-20T01:53:51.549Z,97176.97
2022-08-20T01:56:23.454Z,97173.91
2022-08-20T01:58:56.055Z,97177.88
2022-08-20T02:01:46.185Z,97175.44
2022-08-20T02:04:15.459Z,97181.06
2022-08-20T02:06:56.462Z,97179.09
2022-08-20T02:09:39.434Z,97175.88
2022-08-20T02:12:11.056Z,97181.38
2022-08-20T02:14:51.385Z,97172.25
2022-08-20T02:17:19.351Z,97185.63
2022-08-20T02:19:53.398Z,97178.94
2022-08-20T02:22:32.006Z,97188.97
2022-08-20T02:24:58.641Z,97177.53
2022-08-20T02:27:25.183Z,97178.94
2022-08-20T02:29:55.961Z,97186.53
2022-08-20T02:32:32.190Z,97180.75
2022-08-20T02:35:04.260Z,97177.72
2022-08-20T02:37:33.676Z,97168.41
2022-08-20T02:40:00.355Z,97174.97
2022-08-20T02:42:29.539Z,97173.28
2022-08-20T02:44:58.328Z,97169.63
2022-08-20T02:47:27.724Z,97171.47
2022-08-20T02:49:55.401Z,97174.97
2022-08-20T02:52:25.534Z,97170.56
2022-08-20T02:54:55.115Z,97168.88
2022-08-20T02:57:21.705Z,97162.81
2022-08-20T02:59:52.246Z,97163.41
2022-08-20T03:02:21.591Z,97162.50
2022-08-20T03:04:48.236Z,97152.59
2022-08-20T03:07:15.128Z,97149.84
2022-08-20T03:09:44.126Z,97141.78
2022-08-20T03:12:13.248Z,97149.41
2022-08-20T03:14:40.140Z,97148.03
2022-08-20T03:17:06.785Z,97132.94
2022-08-20T03:19:33.640Z,97148.03
2022-08-20T03:22:00.812Z,97151.22
2022-08-20T03:24:27.376Z,97143.91
2022-08-20T03:26:56.449Z,97146.94
2022-08-20T03:29:23.187Z,97144.38
2022-08-20T03:31:49.767Z,97138.28
2022-08-20T03:34:18.631Z,97146.81
2022-08-20T03:36:45.278Z,97137.06
2022-08-20T03:39:13.329Z,97136.75
2022-08-20T03:41:40.186Z,97139.34
2022-08-20T03:44:10.231Z,97144.53
2022-08-20T03:46:39.638Z,97146.81
2022-08-20T03:49:11.217Z,97136.88
2022-08-20T03:51:57.314Z,97144.97
2022-08-20T03:54:24.407Z,97146.63
2022-08-20T03:56:57.222Z,97142.38
2022-08-20T03:59:29.609Z,97149.25
2022-08-20T04:01:56.396Z,97146.03
2022-08-20T04:04:23.096Z,97154.28
2022-08-20T04:06:51.999Z,97149.56
2022-08-20T04:09:18.848Z,97157.00
2022-08-20T04:11:45.429Z,97153.19
2022-08-20T04:14:18.570Z,97168.28
2022-08-20T04:16:46.410Z,97168.13
2022-08-20T04:19:15.593Z,97166.75
2022-08-20T04:21:44.386Z,97163.09
2022-08-20T04:24:22.773Z,97162.63
2022-08-20T04:27:03.130Z,97165.09
2022-08-20T04:29:35.298Z,97162.34
2022-08-20T04:32:06.205Z,97164.94
2022-08-20T04:34:35.618Z,97164.34
2022-08-20T04:37:04.957Z,97163.25
2022-08-20T04:39:36.396Z,97163.84
2022-08-20T04:42:07.723Z,97175.00
2022-08-20T04:44:34.316Z,97181.56
2022-08-20T04:47:03.036Z,97178.63
2022-08-20T04:49:29.579Z,97175.59
2022-08-20T04:51:58.659Z,97167.34
2022-08-20T04:54:27.710Z,97178.19
2022-08-20T04:56:56.881Z,97160.34
2022-08-20T04:59:26.973Z,97175.75
2022-08-20T05:01:58.437Z,97171.78
2022-08-20T05:04:26.391Z,97176.34
2022-08-20T05:06:52.990Z,97180.03
2022-08-20T05:09:23.253Z,97172.88
2022-08-20T05:11:54.315Z,97185.19
2022-08-20T05:14:23.401Z,97187.50
2022-08-20T05:16:57.470Z,97184.28
2022-08-20T05:19:24.301Z,97191.00
2022-08-20T05:21:53.640Z,97185.19
2022-08-20T05:24:21.442Z,97197.09
2022-08-20T05:26:48.048Z,97200.56
2022-08-20T05:29:17.129Z,97191.31
2022-08-20T05:31:46.201Z,97196.16
2022-08-20T05:34:13.034Z,97193.56
2022-08-20T05:36:46.965Z,97193.28
2022-08-20T05:39:18.221Z,97207.75
2022-08-20T05:41:51.199Z,97207.13
2022-08-20T05:44:21.697Z,97210.50
2022-08-20T05:46:48.582Z,97202.41
2022-08-20T05:49:20.315Z,97207.31
2022-08-20T05:51:47.945Z,97199.97
2022-08-20T05:54:17.210Z,97201.78
2022-08-20T05:56:48.316Z,97206.97
2022-08-20T05:59:21.060Z,97210.00
2022-08-20T06:01:53.277Z,97207.47
2022-08-20T06:04:24.981Z,97200.41
2022-08-20T06:06:54.107Z,97215.28
2022-08-20T06:09:30.643Z,97210.06
2022-08-20T06:12:06.197Z,97209.50
2022-08-20T06:14:33.897Z,97202.94
2022-08-20T06:17:09.770Z,97212.47
2022-08-20T06:19:40.269Z,97212.78
2022-08-20T06:22:18.968Z,97206.72
2022-08-20T06:24:54.310Z,97214.75
2022-08-20T06:27:21.207Z,97206.25
2022-08-20T06:29:50.753Z,97211.47
2022-08-20T06:32:32.084Z,97211.63
2022-08-20T06:35:04.033Z,97211.50
2022-08-20T06:37:32.523Z,97207.84
2022-08-20T06:40:11.293Z,97211.34
2022-08-20T06:42:47.818Z,97214.25
2022-08-20T06:45:18.256Z,97215.78
2022-08-20T06:47:46.845Z,97210.31
2022-08-20T06:50:17.422Z,97217.75
2022-08-20T06:52:52.015Z,97219.59
2022-08-20T06:55:23.205Z,97221.41
2022-08-20T06:58:04.064Z,97229.22
2022-08-20T07:00:34.151Z,97218.81
2022-08-20T07:03:02.171Z,97222.50
2022-08-20T07:05:30.651Z,97216.69
2022-08-20T07:07:57.832Z,97217.75
2022-08-20T07:10:25.310Z,97232.38
2022-08-20T07:12:52.403Z,97224.75
2022-08-20T07:15:21.285Z,97231.50
2022-08-20T07:18:01.113Z,97233.03
2022-08-20T07:20:31.735Z,97234.56
2022-08-20T07:22:59.116Z,97234.72
2022-08-20T07:25:25.864Z,97229.41
2022-08-20T07:27:52.616Z,97232.47
2022-08-20T07:30:56.137Z,97235.50
2022-08-20T07:33:30.409Z,97243.59
2022-08-20T07:36:04.312Z,97239.31
2022-08-20T07:38:34.076Z,97233.97
2022-08-20T07:41:08.184Z,97244.94
2022-08-20T07:43:34.931Z,97245.41
2022-08-20T07:46:03.165Z,97244.38
2022-08-20T07:48:33.430Z,97250.28
2022-08-20T07:51:04.324Z,97245.13
2022-08-20T07:53:36.304Z,97247.69
2022-08-20T07:56:08.320Z,97246.94
2022-08-20T07:58:36.840Z,97251.38
2022-08-20T08:01:07.082Z,97253.19
2022-08-20T08:03:48.887Z,97249.84
2022-08-20T08:06:29.118Z,97255.47
2022-08-20T08:09:07.803Z,97255.94
2022-08-20T08:11:37.955Z,97260.38
2022-08-20T08:14:08.939Z,97261.16
2022-08-20T08:16:39.379Z,97263.25
2022-08-20T08:19:14.775Z,97272.25
2022-08-20T08:21:46.214Z,97259.72
2022-08-20T08:24:17.987Z,97256.22
2022-08-20T08:26:50.378Z,97262.00
2022-08-20T08:29:17.158Z,97261.56
2022-08-20T08:31:44.061Z,97261.53
2022-08-20T08:34:15.169Z,97255.69
2022-08-20T08:36:43.177Z,97260.88
2022-08-20T08:39:10.984Z,97258.72
2022-08-20T08:41:47.236Z,97259.63
2022-08-20T08:44:46.672Z,97261.41
2022-08-20T08:47:26.006Z,97265.63
2022-08-20T08:49:52.754Z,97258.59
2022-08-20T08:52:24.546Z,97255.28
2022-08-20T08:54:59.412Z,97258.63
2022-08-20T08:57:29.317Z,97261.31
2022-08-20T09:00:13.944Z,97256.81
2022-08-20T09:02:56.220Z,97254.63
2022-08-20T09:05:28.153Z,97254.84
2022-08-20T09:08:00.895Z,97255.16
2022-08-20T09:10:27.442Z,97256.00
2022-08-20T09:12:54.078Z,97254.56
2022-08-20T09:15:21.810Z,97254.56
2022-08-20T09:17:48.788Z,97256.09
2022-08-20T09:20:15.356Z,97243.28
2022-08-20T09:22:41.947Z,97254.09
2022-08-20T09:25:08.989Z,97251.94
2022-08-20T09:27:37.892Z,97242.38
2022-08-20T09:30:08.617Z,97264.19
2022-08-20T09:32:35.518Z,97249.81
2022-08-20T09:35:04.771Z,97253.75
2022-08-20T09:37:37.658Z,97251.41
2022-08-20T09:40:10.292Z,97262.06
2022-08-20T09:42:41.578Z,97255.41
2022-08-20T09:45:10.922Z,97251.47
2022-08-20T09:47:38.830Z,97253.78
2022-08-20T09:50:13.475Z,97261.72
2022-08-20T09:52:45.293Z,97267.22
2022-08-20T09:55:38.097Z,97260.28
2022-08-20T09:58:29.657Z,97259.56
2022-08-20T10:00:56.234Z,97256.34
2022-08-20T10:03:25.123Z,97256.13
2022-08-20T10:05:53.931Z,97244.84
2022-08-20T10:08:20.505Z,97244.66
2022-08-20T10:10:49.316Z,97249.56
2022-08-20T10:13:15.875Z,97244.91
2022-08-20T10:15:45.820Z,97247.41
2022-08-20T10:18:12.536Z,97237.81
2022-08-20T10:20:42.182Z,97236.66
2022-08-20T10:23:13.990Z,97241.13
2022-08-20T10:25:42.344Z,97238.19
2022-08-20T10:28:09.044Z,97228.97
2022-08-20T10:30:41.182Z,97226.00
2022-08-20T10:33:09.975Z,97220.44
2022-08-20T10:35:36.791Z,97220.50
2022-08-20T10:38:03.340Z,97220.84
2022-08-20T10:40:29.889Z,97218.13
2022-08-20T10:42:59.191Z,97214.41
2022-08-20T10:45:25.874Z,97212.09
2022-08-20T10:47:54.929Z,97218.22
2022-08-20T10:50:21.489Z,97205.03
2022-08-20T10:52:48.175Z,97221.53
2022-08-20T10:55:15.679Z,97218.06
2022-08-20T10:57:45.121Z,97221.66
2022-08-20T11:00:16.975Z,97228.34
2022-08-20T11:02:46.923Z,97212.81
2022-08-20T11:05:13.721Z,97223.56
2022-08-20T11:07:54.822Z,97221.09
2022-08-20T11:10:28.983Z,97212.09
2022-08-20T11:12:58.344Z,97212.59
2022-08-20T11:15:25.178Z,97216.69
2022-08-20T11:17:52.477Z,97209.72
2022-08-20T11:20:25.032Z,97214.00
2022-08-20T11:22:55.342Z,97209.63
2022-08-20T11:25:24.165Z,97189.69
2022-08-20T11:27:51.931Z,97209.38
2022-08-20T11:30:26.288Z,97198.41
2022-08-20T11:32:53.448Z,97208.38
2022-08-20T11:35:42.301Z,97196.03
2022-08-20T11:38:12.351Z,97195.44
2022-08-20T11:40:39.481Z,97200.22
2022-08-20T11:43:15.042Z,97199.63
2022-08-20T11:45:44.956Z,97194.25
2022-08-20T11:48:12.822Z,97185.13
2022-08-20T11:50:42.021Z,97194.72
2022-08-20T11:53:11.095Z,97183.13
2022-08-20T11:55:42.213Z,97189.75
2022-08-20T11:58:09.784Z,97190.13
2022-08-20T12:00:39.756Z,97197.41
2022-08-20T12:03:11.770Z,97194.47
2022-08-20T12:05:43.691Z,97198.66
2022-08-20T12:08:27.584Z,97190.94
2022-08-20T12:10:58.864Z,97184.75
2022-08-20T12:13:30.904Z,97186.31
2022-08-20T12:16:14.317Z,97167.75
2022-08-20T12:18:40.924Z,97175.22
2022-08-20T12:21:07.476Z,97174.94
2022-08-20T12:23:34.094Z,97167.66
2022-08-20T12:26:05.897Z,97162.91
2022-08-20T12:28:33.070Z,97165.69
2022-08-20T12:31:04.170Z,97159.97
2022-08-20T12:33:35.307Z,97163.56
2022-08-20T12:36:06.620Z,97141.16
2022-08-20T12:38:33.253Z,97164.09
2022-08-20T12:41:00.833Z,97150.44
2022-08-20T12:43:32.307Z,97157.81
2022-08-20T12:46:03.736Z,97154.75
2022-08-20T12:48:35.116Z,97139.09
2022-08-20T12:51:01.820Z,97153.28
2022-08-20T12:53:28.394Z,97134.09
2022-08-20T12:55:54.907Z,97150.50
2022-08-20T12:58:23.901Z,97146.19
2022-08-20T13:00:51.396Z,97137.91
2022-08-20T13:03:21.940Z,97151.00
2022-08-20T13:05:50.794Z,97133.06
2022-08-20T13:08:19.790Z,97143.94
2022-08-20T13:10:46.671Z,97145.19
2022-08-20T13:13:20.502Z,97131.59
2022-08-20T13:15:50.985Z,97135.59
2022-08-20T13:18:20.561Z,97131.81
2022-08-20T13:20:50.391Z,97129.94
2022-08-20T13:23:19.773Z,97126.91
2022-08-20T13:25:48.985Z,97104.78
2022-08-20T13:28:15.536Z,97121.22
2022-08-20T13:30:44.338Z,97116.34
2022-08-20T13:33:13.593Z,97128.88
2022-08-20T13:35:40.160Z,97121.22
2022-08-20T13:38:09.077Z,97121.06
2022-08-20T13:40:37.835Z,97127.44
2022-08-20T13:43:11.767Z,97126.94
2022-08-20T13:45:39.764Z,97129.28
2022-08-20T13:48:14.797Z,97121.25
2022-08-20T13:50:43.870Z,97128.53
2022-08-20T13:53:14.173Z,97129.81
2022-08-20T13:55:40.857Z,97122.50
2022-08-20T13:58:08.112Z,97135.88
2022-08-20T14:00:36.105Z,97135.94
2022-08-20T14:03:05.425Z,97125.91
2022-08-20T14:05:33.253Z,97128.59
2022-08-20T14:08:09.116Z,97120.44
2022-08-20T14:10:39.052Z,97111.91
2022-08-20T14:13:07.012Z,97129.81
2022-08-20T14:15:34.965Z,97116.19
2022-08-20T14:18:02.419Z,97113.91
2022-08-20T14:20:32.914Z,97119.97
2022-08-20T14:23:02.756Z,97110.91
2022-08-20T14:25:31.640Z,97114.59
2022-08-20T14:28:08.836Z,97110.78
2022-08-20T14:30:35.834Z,97106.50
2022-08-20T14:33:04.738Z,97113.25
2022-08-20T14:35:36.055Z,97112.28
2022-08-20T14:38:05.249Z,97121.81
2022-08-20T14:40:33.047Z,97105.78
2022-08-20T14:42:59.696Z,97103.59
2022-08-20T14:45:26.688Z,97112.53
2022-08-20T14:47:57.181Z,97100.78
2022-08-20T14:50:35.061Z,97102.28
2022-08-20T14:53:05.233Z,97100.47
2022-08-20T14:55:37.514Z,97103.31
2022-08-20T14:58:13.726Z,97093.00
2022-08-20T15:00:43.983Z,97093.50
2022-08-20T15:03:10.631Z,97096.28
2022-08-20T15:05:42.126Z,97084.97
2022-08-20T15:08:15.368Z,97098.59
2022-08-20T15:10:44.695Z,97096.28
2022-08-20T15:13:16.082Z,97091.75
2022-08-20T15:15:42.870Z,97099.31
2022-08-20T15:18:11.850Z,97093.28
2022-08-20T15:20:38.728Z,97095.03
2022-08-20T15:23:05.853Z,97085.41
2022-08-20T15:25:36.950Z,97093.91
2022-08-20T15:28:11.160Z,97080.56
2022-08-20T15:30:41.162Z,97088.09
2022-08-20T15:33:09.919Z,97097.00
2022-08-20T15:35:36.555Z,97083.38
2022-08-20T15:38:05.399Z,97084.91
2022-08-20T15:40:36.535Z,97092.00
2022-08-20T15:43:07.456Z,97103.59
2022-08-20T15:45:37.621Z,97090.25
2022-08-20T15:48:12.342Z,97093.53
2022-08-20T15:50:50.435Z,97097.06
2022-08-20T15:53:50.270Z,97091.47
2022-08-20T15:56:38.164Z,97106.09
2022-08-20T15:59:21.545Z,97099.31
2022-08-20T16:02:20.616Z,97106.09
2022-08-20T16:05:13.324Z,97099.56
2022-08-20T16:07:47.275Z,97108.38
2022-08-20T16:10:22.841Z,97118.22
2022-08-20T16:12:54.464Z,97118.22
2022-08-20T16:15:28.295Z,97119.75
2022-08-20T16:18:18.657Z,97125.53
2022-08-20T16:20:51.158Z,97114.66
2022-08-20T16:23:23.974Z,97124.47
2022-08-20T16:26:11.547Z,97123.28
2022-08-20T16:28:47.259Z,97119.25
2022-08-20T16:31:26.109Z,97121.00
2022-08-20T16:34:32.450Z,97113.44
2022-08-20T16:37:22.445Z,97114.69
2022-08-20T16:39:59.131Z,97122.03
2022-08-20T16:42:32.421Z,97109.66
2022-08-20T16:45:07.949Z,97114.19
2022-08-20T16:47:39.908Z,97120.50
2022-08-20T16:50:16.087Z,97128.31
2022-08-20T16:52:46.386Z,97120.00
2022-08-20T16:55:15.349Z,97126.56
2022-08-20T16:57:44.883Z,97121.75
2022-08-20T17:00:13.421Z,97128.31
2022-08-20T17:02:54.466Z,97122.50
2022-08-20T17:05:23.529Z,97130.31
2022-08-20T17:08:03.630Z,97127.28
2022-08-20T17:10:52.447Z,97125.28
2022-08-20T17:13:42.018Z,97123.78
2022-08-20T17:16:19.434Z,97126.28
2022-08-20T17:18:54.105Z,97125.28
2022-08-20T17:21:28.313Z,97125.28
2022-08-20T17:23:59.401Z,97129.75
2022-08-20T17:26:35.228Z,97121.69
2022-08-20T17:29:13.159Z,97125.72
2022-08-20T17:31:47.611Z,97126.41
2022-08-20T17:34:31.672Z,97123.13
2022-08-20T17:37:09.683Z,97127.63
2022-08-20T17:39:48.121Z,97127.31
2022-08-20T17:42:21.304Z,97129.47
2022-08-20T17:45:08.448Z,97137.97
2022-08-20T17:47:41.225Z,97140.69
2022-08-20T17:50:16.209Z,97146.19
2022-08-20T17:53:21.073Z,97149.56
2022-08-20T17:55:56.285Z,97154.53
2022-08-20T17:58:39.729Z,97157.59
2022-08-20T18:01:18.057Z,97158.25
2022-08-20T18:03:48.218Z,97155.56
2022-08-20T18:06:33.913Z,97160.38
2022-08-20T18:09:27.560Z,97159.84
2022-08-20T18:11:54.111Z,97161.88
2022-08-20T18:14:26.710Z,97165.13
2022-08-20T18:17:08.293Z,97166.81
2022-08-20T18:20:09.102Z,97167.50
2022-08-20T18:22:59.613Z,97170.25
2022-08-20T18:25:37.191Z,97161.63
2022-08-20T18:28:38.571Z,97166.81
2022-08-20T18:31:08.885Z,97166.34
2022-08-20T18:33:39.500Z,97163.91
2022-08-20T18:36:22.635Z,97161.44
2022-08-20T18:39:07.993Z,97152.25
2022-08-20T18:41:40.445Z,97165.69
2022-08-20T18:44:15.687Z,97156.03
2022-08-20T18:46:57.970Z,97167.34
2022-08-20T18:49:32.847Z,97165.63
2022-08-20T18:54:35.745Z,97167.53
2022-08-20T18:57:08.982Z,97181.03
2022-08-20T18:59:43.187Z,97182.88
2022-08-20T19:02:25.159Z,97177.09
2022-08-20T19:05:01.992Z,97180.97
2022-08-20T19:07:47.230Z,97182.59
2022-08-20T19:10:53.594Z,97178.06
2022-08-20T19:13:28.298Z,97188.50
2022-08-20T19:16:02.895Z,97192.13
2022-08-20T19:18:34.552Z,97193.25
2022-08-20T19:21:06.471Z,97200.00
2022-08-20T19:23:48.842Z,97196.56
2022-08-20T19:26:25.868Z,97205.75
2022-08-20T19:29:00.332Z,97200.16
2022-08-20T19:31:33.615Z,97212.94
2022-08-20T19:34:22.212Z,97218.44
2022-08-20T19:37:35.309Z,97221.72
2022-08-20T19:40:07.192Z,97214.25
2022-08-20T19:42:46.530Z,97211.69
2022-08-20T19:45:24.205Z,97199.34
2022-08-20T19:48:08.969Z,97209.88
2022-08-20T19:50:49.901Z,97215.25
2022-08-20T19:53:29.996Z,97211.28
2022-08-20T19:56:01.953Z,97209.50
2022-08-20T19:58:31.174Z,97211.78
2022-08-20T20:01:02.156Z,97205.22
2022-08-20T20:03:37.758Z,97214.69
2022-08-20T20:06:16.118Z,97212.19
2022-08-20T20:09:02.732Z,97208.75
2022-08-20T20:11:41.244Z,97207.44
2022-08-20T20:14:15.143Z,97210.72
2022-08-20T20:16:51.069Z,97211.03
2022-08-20T20:19:27.870Z,97215.59
2022-08-20T20:22:27.280Z,97218.81
2022-08-20T20:25:05.230Z,97225.91
2022-08-20T20:27:39.608Z,97224.19
2022-08-20T20:30:14.555Z,97218.53
2022-08-20T20:32:51.282Z,97208.81
2022-08-20T20:35:34.196Z,97215.47
2022-08-20T20:38:07.998Z,97211.66
2022-08-20T20:40:51.393Z,97211.66
2022-08-20T20:43:37.224Z,97206.44
2022-08-20T20:46:15.490Z,97202.91
2022-08-20T20:48:57.699Z,97201.38
2022-08-20T20:51:27.437Z,97196.91
2022-08-20T20:53:59.616Z,97190.38
2022-08-20T20:56:42.163Z,97189.94
2022-08-20T20:59:10.258Z,97200.91
2022-08-20T21:01:48.391Z,97187.84
2022-08-20T21:04:19.002Z,97204.19
2022-08-20T21:06:45.964Z,97180.53
2022-08-20T21:09:12.646Z,97196.69
2022-08-20T21:11:41.958Z,97197.97
2022-08-20T21:14:13.611Z,97203.00
2022-08-20T21:16:40.863Z,97212.34
2022-08-20T21:19:10.330Z,97207.63
2022-08-20T21:21:41.217Z,97208.84
2022-08-20T21:24:08.878Z,97218.66
2022-08-20T21:26:39.542Z,97204.47
2022-08-20T21:29:09.225Z,97215.00
2022-08-20T21:31:43.655Z,97222.66
2022-08-20T21:34:14.044Z,97225.09
2022-08-20T21:36:41.254Z,97219.63
2022-08-20T21:39:11.388Z,97220.22
2022-08-20T21:41:43.296Z,97217.47
2022-08-20T21:44:22.330Z,97216.88
2022-08-20T21:46:53.092Z,97211.25
2022-08-20T21:49:23.488Z,97201.78
2022-08-20T21:51:52.050Z,97214.59
2022-08-20T21:54:21.649Z,97214.59
2022-08-20T21:56:58.993Z,97220.69
2022-08-20T21:59:31.215Z,97212.63
2022-08-20T22:02:01.202Z,97209.72
2022-08-20T22:04:31.152Z,97206.97
2022-08-20T22:07:00.370Z,97213.53
2022-08-20T22:09:27.703Z,97206.66
2022-08-20T22:11:56.447Z,97197.66
2022-08-20T22:14:31.991Z,97211.88
2022-08-20T22:16:58.758Z,97208.66
2022-08-20T22:19:25.400Z,97189.63
2022-08-20T22:21:53.439Z,97195.56
2022-08-20T22:24:23.067Z,97202.72
2022-08-20T22:26:52.203Z,97209.28
2022-08-20T22:29:18.956Z,97208.34
2022-08-20T22:31:46.099Z,97210.97
2022-08-20T22:34:17.198Z,97195.25
2022-08-20T22:36:47.452Z,97213.56
2022-08-20T22:39:14.735Z,97213.84
2022-08-20T22:41:41.320Z,97206.38
2022-08-20T22:44:08.175Z,97204.41
2022-08-20T22:46:42.521Z,97216.00
2022-08-20T22:49:16.436Z,97207.91
2022-08-20T22:51:46.343Z,97196.94
2022-08-20T22:54:18.666Z,97199.81
2022-08-20T22:56:45.315Z,97191.72
2022-08-20T22:59:12.621Z,97199.22
2022-08-20T23:01:39.360Z,97190.50
2022-08-20T23:04:33.476Z,97200.13
2022-08-20T23:07:02.454Z,97204.38
2022-08-20T23:09:31.777Z,97191.13
2022-08-20T23:12:00.753Z,97194.00
2022-08-20T23:14:27.495Z,97190.19
2022-08-20T23:17:13.408Z,97197.97
2022-08-20T23:19:44.190Z,97191.72
2022-08-20T23:22:15.951Z,97191.44
2022-08-20T23:24:42.640Z,97194.47
2022-08-20T23:27:13.758Z,97185.78
2022-08-20T23:29:44.078Z,97186.72
2022-08-20T23:32:13.719Z,97176.34
2022-08-20T23:34:40.357Z,97171.00
2022-08-20T23:37:10.237Z,97174.22
2022-08-20T23:39:37.356Z,97176.47
2022-08-20T23:42:06.460Z,97180.72
2022-08-20T23:44:33.090Z,97177.63
2022-08-20T23:47:02.278Z,97181.75
2022-08-20T23:49:33.099Z,97189.22
2022-08-20T23:52:02.133Z,97180.41
2022-08-20T23:54:30.874Z,97178.00
2022-08-20T23:56:57.716Z,97174.66
2022-08-20T23:59:27.611Z,97173.28
